sensor_id;sensor_type;location;lat;lon;timestamp;pressure;altitude;pressure_sealevel;temperature;humidity
46876;BME280;32866;50.160;14.768;2023-01-29T00:00:33;100547.94;;;-3.34;100.00
46876;BME280;32866;50.160;14.768;2023-01-29T00:02:59;100577.28;;;-3.21;100.00
46876;BME280;32866;50.160;14.768;2023-01-29T00:05:24;100587.06;;;-3.25;100.00
46876;BME280;32866;50.160;14.768;2023-01-29T00:07:49;100583.09;;;-3.19;100.00
46876;BME280;32866;50.160;14.768;2023-01-29T00:10:15;100583.88;;;-3.36;100.00
46876;BME280;32866;50.160;14.768;2023-01-29T00:12:40;100580.44;;;-3.45;100.00
46876;BME280;32866;50.160;14.768;2023-01-29T00:15:06;100571.28;;;-3.35;100.00
46876;BME280;32866;50.160;14.768;2023-01-29T00:17:31;100568.59;;;-3.18;100.00
46876;BME280;32866;50.160;14.768;2023-01-29T00:19:57;100583.25;;;-3.32;100.00
46876;BME280;32866;50.160;14.768;2023-01-29T00:22:22;100564.50;;;-3.50;100.00
46876;BME280;32866;50.160;14.768;2023-01-29T00:24:48;100576.03;;;-3.23;100.00
46876;BME280;32866;50.160;14.768;2023-01-29T00:27:13;100585.78;;;-3.27;100.00
46876;BME280;32866;50.160;14.768;2023-01-29T00:29:39;100552.03;;;-3.46;100.00
46876;BME280;32866;50.160;14.768;2023-01-29T00:32:05;100585.78;;;-3.27;100.00
46876;BME280;32866;50.160;14.768;2023-01-29T00:34:31;100541.31;;;-3.63;100.00
46876;BME280;32866;50.160;14.768;2023-01-29T00:36:56;100594.59;;;-3.27;100.00
46876;BME280;32866;50.160;14.768;2023-01-29T00:39:29;100596.97;;;-3.34;100.00
46876;BME280;32866;50.160;14.768;2023-01-29T00:42:03;100589.91;;;-3.21;100.00
46876;BME280;32866;50.160;14.768;2023-01-29T00:44:47;100563.72;;;-3.24;100.00
46876;BME280;32866;50.160;14.768;2023-01-29T00:47:21;100560.06;;;-3.46;100.00
46876;BME280;32866;50.160;14.768;2023-01-29T00:50:00;100588.47;;;-3.19;100.00
46876;BME280;32866;50.160;14.768;2023-01-29T00:52:27;100583.09;;;-3.27;100.00
46876;BME280;32866;50.160;14.768;2023-01-29T00:54:54;100574.44;;;-3.24;100.00
46876;BME280;32866;50.160;14.768;2023-01-29T00:57:21;100580.88;;;-3.34;100.00
46876;BME280;32866;50.160;14.768;2023-01-29T00:59:46;100548.56;;;-3.38;100.00
46876;BME280;32866;50.160;14.768;2023-01-29T01:02:12;100573.00;;;-3.04;100.00
46876;BME280;32866;50.160;14.768;2023-01-29T01:04:56;100565.13;;;-3.27;100.00
46876;BME280;32866;50.160;14.768;2023-01-29T01:07:21;100569.06;;;-3.07;100.00
46876;BME280;32866;50.160;14.768;2023-01-29T01:09:47;100557.25;;;-3.23;100.00
46876;BME280;32866;50.160;14.768;2023-01-29T01:12:31;100559.91;;;-3.32;100.00
46876;BME280;32866;50.160;14.768;2023-01-29T01:14:56;100512.44;;;-3.49;100.00
46876;BME280;32866;50.160;14.768;2023-01-29T01:17:22;100525.22;;;-3.63;100.00
46876;BME280;32866;50.160;14.768;2023-01-29T01:19:47;100542.59;;;-3.43;100.00
46876;BME280;32866;50.160;14.768;2023-01-29T01:22:13;100546.81;;;-3.42;100.00
46876;BME280;32866;50.160;14.768;2023-01-29T01:24:38;100555.03;;;-3.12;100.00
46876;BME280;32866;50.160;14.768;2023-01-29T01:27:04;100556.13;;;-3.31;100.00
46876;BME280;32866;50.160;14.768;2023-01-29T01:29:30;100561.19;;;-3.29;100.00
46876;BME280;32866;50.160;14.768;2023-01-29T01:31:55;100554.56;;;-3.32;100.00
46876;BME280;32866;50.160;14.768;2023-01-29T01:34:21;100517.69;;;-3.35;100.00
46876;BME280;32866;50.160;14.768;2023-01-29T01:36:47;100525.53;;;-3.39;100.00
46876;BME280;32866;50.160;14.768;2023-01-29T01:39:12;100555.19;;;-3.26;100.00
46876;BME280;32866;50.160;14.768;2023-01-29T01:41:37;100545.41;;;-3.22;100.00
46876;BME280;32866;50.160;14.768;2023-01-29T01:44:04;100530.41;;;-3.32;100.00
46876;BME280;32866;50.160;14.768;2023-01-29T01:46:32;100547.47;;;-3.28;100.00
46876;BME280;32866;50.160;14.768;2023-01-29T01:49:12;100532.81;;;-3.48;100.00
46876;BME280;32866;50.160;14.768;2023-01-29T01:51:45;100550.78;;;-3.40;100.00
46876;BME280;32866;50.160;14.768;2023-01-29T01:54:31;100549.69;;;-3.30;100.00
46876;BME280;32866;50.160;14.768;2023-01-29T01:57:01;100504.75;;;-3.42;100.00
46876;BME280;32866;50.160;14.768;2023-01-29T02:00:26;100532.19;;;-3.45;100.00
46876;BME280;32866;50.160;14.768;2023-01-29T02:02:28;100523.81;;;-3.34;100.00
46876;BME280;32866;50.160;14.768;2023-01-29T02:05:13;100530.59;;;-3.28;100.00
46876;BME280;32866;50.160;14.768;2023-01-29T02:07:57;100537.69;;;-3.32;100.00
46876;BME280;32866;50.160;14.768;2023-01-29T02:10:45;100549.66;;;-3.12;100.00
46876;BME280;32866;50.160;14.768;2023-01-29T02:13:11;100547.00;;;-3.21;100.00
46876;BME280;32866;50.160;14.768;2023-01-29T02:15:37;100540.84;;;-3.22;100.00
46876;BME280;32866;50.160;14.768;2023-01-29T02:18:06;100554.25;;;-3.48;100.00
46876;BME280;32866;50.160;14.768;2023-01-29T02:20:33;100539.75;;;-3.29;100.00
46876;BME280;32866;50.160;14.768;2023-01-29T02:23:16;100509.00;;;-3.67;100.00
46876;BME280;32866;50.160;14.768;2023-01-29T02:26:16;100538.78;;;-3.68;100.00
46876;BME280;32866;50.160;14.768;2023-01-29T02:36:49;100543.94;;;-3.89;100.00
46876;BME280;32866;50.160;14.768;2023-01-29T02:39:34;100550.06;;;-3.98;100.00
46876;BME280;32866;50.160;14.768;2023-01-29T02:44:39;100535.91;;;-3.81;100.00
46876;BME280;32866;50.160;14.768;2023-01-29T02:47:18;100542.53;;;-3.87;100.00
46876;BME280;32866;50.160;14.768;2023-01-29T02:50:00;100540.34;;;-3.85;100.00
46876;BME280;32866;50.160;14.768;2023-01-29T02:52:37;100517.28;;;-4.03;100.00
46876;BME280;32866;50.160;14.768;2023-01-29T02:55:19;100562.53;;;-3.93;100.00
46876;BME280;32866;50.160;14.768;2023-01-29T02:57:48;100564.22;;;-3.97;100.00
46876;BME280;32866;50.160;14.768;2023-01-29T03:00:20;100539.81;;;-3.96;100.00
46876;BME280;32866;50.160;14.768;2023-01-29T03:02:58;100562.69;;;-3.81;100.00
46876;BME280;32866;50.160;14.768;2023-01-29T03:05:30;100569.50;;;-3.75;100.00
46876;BME280;32866;50.160;14.768;2023-01-29T03:08:03;100562.69;;;-3.81;100.00
46876;BME280;32866;50.160;14.768;2023-01-29T03:10:34;100569.03;;;-3.77;100.00
46876;BME280;32866;50.160;14.768;2023-01-29T03:13:12;100569.66;;;-3.80;100.00
46876;BME280;32866;50.160;14.768;2023-01-29T03:15:42;100546.94;;;-3.91;100.00
46876;BME280;32866;50.160;14.768;2023-01-29T03:18:13;100555.16;;;-3.79;100.00
46876;BME280;32866;50.160;14.768;2023-01-29T03:20:47;100540.50;;;-3.73;100.00
46876;BME280;32866;50.160;14.768;2023-01-29T03:23:26;100551.22;;;-3.64;100.00
46876;BME280;32866;50.160;14.768;2023-01-29T03:26:12;100553.13;;;-3.56;100.00
46876;BME280;32866;50.160;14.768;2023-01-29T03:28:58;100550.44;;;-3.64;100.00
46876;BME280;32866;50.160;14.768;2023-01-29T03:31:43;100547.13;;;-3.79;100.00
46876;BME280;32866;50.160;14.768;2023-01-29T03:34:28;100531.53;;;-3.77;100.00
46876;BME280;32866;50.160;14.768;2023-01-29T03:37:07;100555.34;;;-3.58;100.00
46876;BME280;32866;50.160;14.768;2023-01-29T03:39:38;100506.59;;;-3.86;100.00
46876;BME280;32866;50.160;14.768;2023-01-29T03:47:15;100538.94;;;-3.65;100.00
46876;BME280;32866;50.160;14.768;2023-01-29T03:52:39;100528.69;;;-3.80;100.00
46876;BME280;32866;50.160;14.768;2023-01-29T03:55:21;100544.16;;;-3.60;100.00
46876;BME280;32866;50.160;14.768;2023-01-29T04:00:27;100533.91;;;-3.58;100.00
46876;BME280;32866;50.160;14.768;2023-01-29T04:05:42;100541.31;;;-3.63;100.00
46876;BME280;32866;50.160;14.768;2023-01-29T04:08:13;100549.31;;;-3.72;100.00
46876;BME280;32866;50.160;14.768;2023-01-29T04:10:42;100550.44;;;-3.82;100.00
46876;BME280;32866;50.160;14.768;2023-01-29T04:13:10;100550.91;;;-3.80;100.00
46876;BME280;32866;50.160;14.768;2023-01-29T04:15:42;100536.56;;;-3.66;100.00
46876;BME280;32866;50.160;14.768;2023-01-29T04:18:08;100528.06;;;-3.68;100.00
46876;BME280;32866;50.160;14.768;2023-01-29T04:20:34;100528.06;;;-3.68;100.00
46876;BME280;32866;50.160;14.768;2023-01-29T04:23:00;100530.25;;;-3.70;100.00
46876;BME280;32866;50.160;14.768;2023-01-29T04:25:29;100522.66;;;-3.77;100.00
46876;BME280;32866;50.160;14.768;2023-01-29T04:28:25;100535.16;;;-3.55;100.00
46876;BME280;32866;50.160;14.768;2023-01-29T04:30:57;100527.75;;;-3.58;100.00
46876;BME280;32866;50.160;14.768;2023-01-29T04:33:43;100524.41;;;-3.73;100.00
46876;BME280;32866;50.160;14.768;2023-01-29T04:36:21;100524.09;;;-3.71;100.00
46876;BME280;32866;50.160;14.768;2023-01-29T04:39:14;100512.00;;;-3.68;100.00
46876;BME280;32866;50.160;14.768;2023-01-29T04:41:49;100523.94;;;-3.83;100.00
46876;BME280;32866;50.160;14.768;2023-01-29T04:44:25;100524.72;;;-3.83;100.00
46876;BME280;32866;50.160;14.768;2023-01-29T04:49:42;100520.16;;;-3.82;100.00
46876;BME280;32866;50.160;14.768;2023-01-29T04:52:18;100508.34;;;-3.90;100.00
46876;BME280;32866;50.160;14.768;2023-01-29T05:02:43;100496.34;;;-3.84;100.00
46876;BME280;32866;50.160;14.768;2023-01-29T05:05:10;100515.44;;;-3.77;100.00
46876;BME280;32866;50.160;14.768;2023-01-29T05:07:38;100520.47;;;-3.84;100.00
46876;BME280;32866;50.160;14.768;2023-01-29T05:10:06;100505.97;;;-3.83;100.00
46876;BME280;32866;50.160;14.768;2023-01-29T05:12:32;100465.59;;;-4.13;100.00
46876;BME280;32866;50.160;14.768;2023-01-29T05:15:01;100502.31;;;-3.96;100.00
46876;BME280;32866;50.160;14.768;2023-01-29T05:17:27;100472.22;;;-4.01;100.00
46876;BME280;32866;50.160;14.768;2023-01-29T05:19:54;100503.28;;;-3.92;100.00
46876;BME280;32866;50.160;14.768;2023-01-29T05:22:21;100495.25;;;-3.83;100.00
46876;BME280;32866;50.160;14.768;2023-01-29T05:24:48;100492.41;;;-3.95;100.00
46876;BME280;32866;50.160;14.768;2023-01-29T05:27:20;100491.81;;;-3.75;100.00
46876;BME280;32866;50.160;14.768;2023-01-29T05:30:05;100500.00;;;-3.88;100.00
46876;BME280;32866;50.160;14.768;2023-01-29T05:32:31;100493.50;;;-3.96;100.00
46876;BME280;32866;50.160;14.768;2023-01-29T05:34:57;100486.44;;;-3.83;100.00
46876;BME280;32866;50.160;14.768;2023-01-29T05:37:22;100500.00;;;-3.88;100.00
46876;BME280;32866;50.160;14.768;2023-01-29T05:39:47;100458.47;;;-4.26;100.00
46876;BME280;32866;50.160;14.768;2023-01-29T05:42:13;100488.16;;;-3.96;100.00
46876;BME280;32866;50.160;14.768;2023-01-29T05:44:38;100455.81;;;-4.26;100.00
46876;BME280;32866;50.160;14.768;2023-01-29T05:47:03;100490.22;;;-3.93;100.00
46876;BME280;32866;50.160;14.768;2023-01-29T05:49:29;100469.69;;;-4.24;100.00
46876;BME280;32866;50.160;14.768;2023-01-29T05:51:54;100496.66;;;-4.03;100.00
46876;BME280;32866;50.160;14.768;2023-01-29T05:54:20;100472.44;;;-4.47;100.00
46876;BME280;32866;50.160;14.768;2023-01-29T05:56:45;100492.03;;;-4.20;100.00
46876;BME280;32866;50.160;14.768;2023-01-29T05:59:10;100463.84;;;-4.26;100.00
46876;BME280;32866;50.160;14.768;2023-01-29T06:01:36;100428.69;;;-4.51;100.00
46876;BME280;32866;50.160;14.768;2023-01-29T06:04:01;100463.06;;;-4.26;100.00
46876;BME280;32866;50.160;14.768;2023-01-29T06:06:27;100462.69;;;-4.42;100.00
46876;BME280;32866;50.160;14.768;2023-01-29T06:08:52;100477.78;;;-4.47;100.00
46876;BME280;32866;50.160;14.768;2023-01-29T06:11:18;100459.66;;;-4.58;100.00
46876;BME280;32866;50.160;14.768;2023-01-29T06:13:44;100470.84;;;-4.48;100.00
46876;BME280;32866;50.160;14.768;2023-01-29T06:16:11;100464.72;;;-4.48;100.00
46876;BME280;32866;50.160;14.768;2023-01-29T06:18:37;100462.81;;;-4.56;100.00
46876;BME280;32866;50.160;14.768;2023-01-29T06:21:03;100469.53;;;-4.68;100.00
46876;BME280;32866;50.160;14.768;2023-01-29T06:23:29;100468.41;;;-4.75;100.00
46876;BME280;32866;50.160;14.768;2023-01-29T06:26:03;100466.34;;;-4.78;100.00
46876;BME280;32866;50.160;14.768;2023-01-29T06:28:29;100453.56;;;-4.81;100.00
46876;BME280;32866;50.160;14.768;2023-01-29T06:31:01;100458.63;;;-4.80;100.00
46876;BME280;32866;50.160;14.768;2023-01-29T06:33:27;100429.94;;;-5.19;100.00
46876;BME280;32866;50.160;14.768;2023-01-29T06:35:55;100476.31;;;-4.93;100.00
46876;BME280;32866;50.160;14.768;2023-01-29T06:38:21;100469.94;;;-4.83;100.00
46876;BME280;32866;50.160;14.768;2023-01-29T06:40:47;100470.97;;;-4.93;100.00
46876;BME280;32866;50.160;14.768;2023-01-29T06:43:12;100463.22;;;-5.03;100.00
46876;BME280;32866;50.160;14.768;2023-01-29T06:45:37;100479.66;;;-5.18;100.00
46876;BME280;32866;50.160;14.768;2023-01-29T06:48:02;100470.41;;;-5.12;100.00
46876;BME280;32866;50.160;14.768;2023-01-29T06:50:28;100430.72;;;-5.28;100.00
46876;BME280;32866;50.160;14.768;2023-01-29T06:52:53;100465.19;;;-5.17;100.00
46876;BME280;32866;50.160;14.768;2023-01-29T06:55:18;100491.31;;;-5.14;100.00
46876;BME280;32866;50.160;14.768;2023-01-29T06:57:44;100483.78;;;-5.12;100.00
46876;BME280;32866;50.160;14.768;2023-01-29T07:00:09;100481.16;;;-5.04;100.00
46876;BME280;32866;50.160;14.768;2023-01-29T07:02:35;100481.50;;;-4.96;100.00
46876;BME280;32866;50.160;14.768;2023-01-29T07:05:00;100487.03;;;-4.93;100.00
46876;BME280;32866;50.160;14.768;2023-01-29T07:07:25;100489.81;;;-4.98;100.00
46876;BME280;32866;50.160;14.768;2023-01-29T07:09:50;100500.97;;;-5.05;100.00
46876;BME280;32866;50.160;14.768;2023-01-29T07:12:16;100507.97;;;-5.17;100.00
46876;BME280;32866;50.160;14.768;2023-01-29T07:14:41;100516.13;;;-4.91;100.00
46876;BME280;32866;50.160;14.768;2023-01-29T07:17:06;100519.00;;;-4.56;100.00
46876;BME280;32866;50.160;14.768;2023-01-29T07:19:32;100491.44;;;-4.66;100.00
46876;BME280;32866;50.160;14.768;2023-01-29T07:21:57;100476.75;;;-4.68;100.00
46876;BME280;32866;50.160;14.768;2023-01-29T07:24:26;100527.00;;;-4.25;100.00
46876;BME280;32866;50.160;14.768;2023-01-29T07:26:51;100535.50;;;-4.23;100.00
46876;BME280;32866;50.160;14.768;2023-01-29T07:29:17;100517.47;;;-4.49;100.00
46876;BME280;32866;50.160;14.768;2023-01-29T07:31:43;100545.53;;;-4.37;100.00
46876;BME280;32866;50.160;14.768;2023-01-29T07:34:08;100549.03;;;-4.28;100.00
46876;BME280;32866;50.160;14.768;2023-01-29T07:36:33;100526.13;;;-4.43;100.00
46876;BME280;32866;50.160;14.768;2023-01-29T07:39:01;100561.22;;;-4.13;100.00
46876;BME280;32866;50.160;14.768;2023-01-29T07:41:26;100546.28;;;-4.05;100.00
46876;BME280;32866;50.160;14.768;2023-01-29T07:43:52;100519.66;;;-4.02;100.00
46876;BME280;32866;50.160;14.768;2023-01-29T07:46:17;100545.22;;;-3.69;100.00
46876;BME280;32866;50.160;14.768;2023-01-29T07:48:42;100526.72;;;-4.06;100.00
46876;BME280;32866;50.160;14.768;2023-01-29T07:51:08;100543.16;;;-3.90;100.00
46876;BME280;32866;50.160;14.768;2023-01-29T07:53:33;100524.06;;;-3.97;100.00
46876;BME280;32866;50.160;14.768;2023-01-29T07:55:59;100537.97;;;-3.86;100.00
46876;BME280;32866;50.160;14.768;2023-01-29T07:58:25;100558.94;;;-3.62;100.00
46876;BME280;32866;50.160;14.768;2023-01-29T08:00:50;100543.31;;;-3.95;100.00
46876;BME280;32866;50.160;14.768;2023-01-29T08:03:17;100573.13;;;-3.70;100.00
46876;BME280;32866;50.160;14.768;2023-01-29T08:05:44;100568.88;;;-3.71;100.00
46876;BME280;32866;50.160;14.768;2023-01-29T08:08:10;100530.22;;;-3.88;100.00
46876;BME280;32866;50.160;14.768;2023-01-29T08:10:36;100581.66;;;-3.68;100.00
46876;BME280;32866;50.160;14.768;2023-01-29T08:13:03;100581.50;;;-3.46;100.00
46876;BME280;32866;50.160;14.768;2023-01-29T08:15:29;100590.84;;;-3.43;100.00
46876;BME280;32866;50.160;14.768;2023-01-29T08:17:55;100586.25;;;-3.51;100.00
46876;BME280;32866;50.160;14.768;2023-01-29T08:20:21;100590.50;;;-3.50;100.00
46876;BME280;32866;50.160;14.768;2023-01-29T08:22:47;100580.13;;;-3.43;100.00
46876;BME280;32866;50.160;14.768;2023-01-29T08:25:12;100582.16;;;-3.40;100.00
46876;BME280;32866;50.160;14.768;2023-01-29T08:27:39;100582.16;;;-3.40;100.00
46876;BME280;32866;50.160;14.768;2023-01-29T08:30:05;100570.66;;;-3.23;100.00
46876;BME280;32866;50.160;14.768;2023-01-29T08:32:31;100573.34;;;-3.23;100.00
46876;BME280;32866;50.160;14.768;2023-01-29T08:34:56;100566.72;;;-3.26;100.00
46876;BME280;32866;50.160;14.768;2023-01-29T08:37:21;100555.03;;;-3.21;100.00
46876;BME280;32866;50.160;14.768;2023-01-29T08:39:47;100510.72;;;-3.45;100.00
46876;BME280;32866;50.160;14.768;2023-01-29T08:42:12;100551.88;;;-3.14;100.00
46876;BME280;32866;50.160;14.768;2023-01-29T08:44:37;100564.16;;;-2.87;100.00
46876;BME280;32866;50.160;14.768;2023-01-29T08:47:03;100561.47;;;-2.87;100.00
46876;BME280;32866;50.160;14.768;2023-01-29T08:49:28;100520.63;;;-3.10;100.00
46876;BME280;32866;50.160;14.768;2023-01-29T08:51:53;100553.72;;;-2.89;100.00
46876;BME280;32866;50.160;14.768;2023-01-29T08:54:21;100533.69;;;-2.83;100.00
46876;BME280;32866;50.160;14.768;2023-01-29T08:56:46;100546.00;;;-2.90;100.00
46876;BME280;32866;50.160;14.768;2023-01-29T08:59:12;100561.63;;;-2.92;100.00
46876;BME280;32866;50.160;14.768;2023-01-29T09:01:37;100525.34;;;-3.07;100.00
46876;BME280;32866;50.160;14.768;2023-01-29T09:04:03;100534.19;;;-3.07;100.00
46876;BME280;32866;50.160;14.768;2023-01-29T09:06:28;100529.28;;;-2.87;100.00
46876;BME280;32866;50.160;14.768;2023-01-29T09:08:53;100551.06;;;-2.42;100.00
46876;BME280;32866;50.160;14.768;2023-01-29T09:11:19;100530.34;;;-2.71;100.00
46876;BME280;32866;50.160;14.768;2023-01-29T09:13:44;100502.53;;;-2.66;100.00
46876;BME280;32866;50.160;14.768;2023-01-29T09:16:10;100521.16;;;-2.22;100.00
46876;BME280;32866;50.160;14.768;2023-01-29T09:18:35;100552.44;;;-1.25;100.00
46876;BME280;32866;50.160;14.768;2023-01-29T09:21:00;100548.25;;;-1.35;100.00
46876;BME280;32866;50.160;14.768;2023-01-29T09:23:27;100554.94;;;-1.62;100.00
46876;BME280;32866;50.160;14.768;2023-01-29T09:25:53;100547.88;;;-1.45;100.00
46876;BME280;32866;50.160;14.768;2023-01-29T09:28:18;100542.56;;;-1.54;100.00
46876;BME280;32866;50.160;14.768;2023-01-29T09:30:44;100540.06;;;-1.38;100.00
46876;BME280;32866;50.160;14.768;2023-01-29T09:33:10;100526.19;;;-1.28;100.00
46876;BME280;32866;50.160;14.768;2023-01-29T09:35:35;100550.41;;;-1.28;100.00
46876;BME280;32866;50.160;14.768;2023-01-29T09:38:00;100537.75;;;-0.94;100.00
46876;BME280;32866;50.160;14.768;2023-01-29T09:43:20;100547.06;;;-0.46;100.00
46876;BME280;32866;50.160;14.768;2023-01-29T09:45:58;100541.22;;;-0.48;100.00
46876;BME280;32866;50.160;14.768;2023-01-29T09:48:27;100538.88;;;-0.95;100.00
46876;BME280;32866;50.160;14.768;2023-01-29T09:50:57;100538.13;;;-1.38;100.00
46876;BME280;32866;50.160;14.768;2023-01-29T09:53:35;100533.91;;;-1.39;100.00
46876;BME280;32866;50.160;14.768;2023-01-29T09:56:32;100526.72;;;-1.77;100.00
46876;BME280;32866;50.160;14.768;2023-01-29T09:58:59;100517.69;;;-1.72;100.00
46876;BME280;32866;50.160;14.768;2023-01-29T10:04:43;100495.38;;;-1.94;100.00
46876;BME280;32866;50.160;14.768;2023-01-29T10:16:46;100426.09;;;-1.67;100.00
46876;BME280;32866;50.160;14.768;2023-01-29T10:26:50;100442.28;;;-1.21;100.00
46876;BME280;32866;50.160;14.768;2023-01-29T10:29:18;100450.41;;;-1.42;100.00
46876;BME280;32866;50.160;14.768;2023-01-29T10:31:45;100442.53;;;-1.47;100.00
46876;BME280;32866;50.160;14.768;2023-01-29T10:34:25;100427.34;;;-1.31;100.00
46876;BME280;32866;50.160;14.768;2023-01-29T10:36:54;100461.53;;;-0.86;100.00
46876;BME280;32866;50.160;14.768;2023-01-29T10:39:22;100460.78;;;-0.62;100.00
46876;BME280;32866;50.160;14.768;2023-01-29T10:42:07;100456.38;;;-0.79;100.00
46876;BME280;32866;50.160;14.768;2023-01-29T10:44:56;100440.47;;;-0.71;100.00
46876;BME280;32866;50.160;14.768;2023-01-29T10:47:43;100436.44;;;-0.65;100.00
46876;BME280;32866;50.160;14.768;2023-01-29T10:58:58;100410.84;;;-0.59;100.00
46876;BME280;32866;50.160;14.768;2023-01-29T11:01:24;100409.50;;;-0.53;100.00
46876;BME280;32866;50.160;14.768;2023-01-29T11:04:02;100408.03;;;-0.50;100.00
46876;BME280;32866;50.160;14.768;2023-01-29T11:06:34;100410.72;;;-0.50;100.00
46876;BME280;32866;50.160;14.768;2023-01-29T11:09:25;100411.94;;;-0.23;100.00
46876;BME280;32866;50.160;14.768;2023-01-29T11:14:50;100403.44;;;0.03;100.00
46876;BME280;32866;50.160;14.768;2023-01-29T11:17:20;100413.81;;;-0.24;100.00
46876;BME280;32866;50.160;14.768;2023-01-29T11:19:48;100381.22;;;-0.47;100.00
46876;BME280;32866;50.160;14.768;2023-01-29T11:22:20;100409.25;;;-0.35;100.00
46876;BME280;32866;50.160;14.768;2023-01-29T11:27:32;100397.22;;;-0.26;100.00
46876;BME280;32866;50.160;14.768;2023-01-29T11:29:59;100387.56;;;-0.14;100.00
46876;BME280;32866;50.160;14.768;2023-01-29T11:32:28;100379.19;;;-0.38;100.00
46876;BME280;32866;50.160;14.768;2023-01-29T11:35:21;100374.41;;;-0.16;100.00
46876;BME280;32866;50.160;14.768;2023-01-29T11:37:47;100358.88;;;-0.47;100.00
46876;BME280;32866;50.160;14.768;2023-01-29T11:42:47;100363.94;;;-0.70;100.00
46876;BME280;32866;50.160;14.768;2023-01-29T11:47:48;100358.03;;;-0.88;100.00
46876;BME280;32866;50.160;14.768;2023-01-29T11:50:22;100354.75;;;-0.94;100.00
46876;BME280;32866;50.160;14.768;2023-01-29T11:52:48;100359.34;;;-0.82;100.00
46876;BME280;32866;50.160;14.768;2023-01-29T11:55:17;100339.84;;;-0.91;100.00
46876;BME280;32866;50.160;14.768;2023-01-29T11:57:48;100301.59;;;-1.34;100.00
46876;BME280;32866;50.160;14.768;2023-01-29T12:00:22;100331.09;;;-1.25;100.00
46876;BME280;32866;50.160;14.768;2023-01-29T12:05:59;100287.03;;;-0.96;100.00
46876;BME280;32866;50.160;14.768;2023-01-29T12:08:33;100314.38;;;-0.69;100.00
46876;BME280;32866;50.160;14.768;2023-01-29T12:11:14;100285.69;;;-1.02;100.00
46876;BME280;32866;50.160;14.768;2023-01-29T12:13:53;100308.91;;;-0.85;100.00
46876;BME280;32866;50.160;14.768;2023-01-29T12:21:51;100310.22;;;-0.79;100.00
46876;BME280;32866;50.160;14.768;2023-01-29T12:27:38;100311.25;;;-0.71;100.00
46876;BME280;32866;50.160;14.768;2023-01-29T12:30:21;100308.41;;;-0.63;100.00
46876;BME280;32866;50.160;14.768;2023-01-29T12:33:01;100290.59;;;-0.80;100.00
46876;BME280;32866;50.160;14.768;2023-01-29T12:35:32;100309.66;;;-0.72;100.00
46876;BME280;32866;50.160;14.768;2023-01-29T12:38:03;100306.25;;;-0.57;100.00
46876;BME280;32866;50.160;14.768;2023-01-29T12:40:54;100299.69;;;-0.72;100.00
46876;BME280;32866;50.160;14.768;2023-01-29T12:43:29;100298.31;;;-0.66;100.00
46876;BME280;32866;50.160;14.768;2023-01-29T12:45:56;100297.97;;;-0.64;100.00
46876;BME280;32866;50.160;14.768;2023-01-29T12:48:33;100266.59;;;-0.72;100.00
46876;BME280;32866;50.160;14.768;2023-01-29T12:51:08;100289.41;;;-0.42;100.00
46876;BME280;32866;50.160;14.768;2023-01-29T12:54:00;100293.16;;;-0.30;100.00
46876;BME280;32866;50.160;14.768;2023-01-29T12:56:33;100284.47;;;-0.40;100.00
46876;BME280;32866;50.160;14.768;2023-01-29T12:59:04;100288.13;;;-0.32;100.00
46876;BME280;32866;50.160;14.768;2023-01-29T13:01:38;100281.56;;;-0.47;100.00
46876;BME280;32866;50.160;14.768;2023-01-29T13:04:14;100283.34;;;-0.39;100.00
46876;BME280;32866;50.160;14.768;2023-01-29T13:06:49;100273.00;;;-0.36;100.00
46876;BME280;32866;50.160;14.768;2023-01-29T13:09:24;100280.44;;;-0.17;100.00
46876;BME280;32866;50.160;14.768;2023-01-29T13:12:22;100271.25;;;-0.16;100.00
46876;BME280;32866;50.160;14.768;2023-01-29T13:15:14;100263.50;;;-0.18;100.00
46876;BME280;32866;50.160;14.768;2023-01-29T13:17:44;100249.47;;;-0.24;100.00
46876;BME280;32866;50.160;14.768;2023-01-29T13:20:25;100240.00;;;0.11;100.00
46876;BME280;32866;50.160;14.768;2023-01-29T13:22:55;100225.75;;;0.10;100.00
46876;BME280;32866;50.160;14.768;2023-01-29T13:25:21;100240.81;;;0.27;100.00
46876;BME280;32866;50.160;14.768;2023-01-29T13:27:48;100230.72;;;0.24;100.00
46876;BME280;32866;50.160;14.768;2023-01-29T13:30:31;100231.66;;;0.16;100.00
46876;BME280;32866;50.160;14.768;2023-01-29T13:33:00;100228.50;;;-0.02;100.00
46876;BME280;32866;50.160;14.768;2023-01-29T13:35:40;100230.00;;;-0.05;100.00
46876;BME280;32866;50.160;14.768;2023-01-29T13:38:22;100226.22;;;-0.16;100.00
46876;BME280;32866;50.160;14.768;2023-01-29T13:40:50;100223.88;;;-0.17;100.00
46876;BME280;32866;50.160;14.768;2023-01-29T13:43:20;100226.38;;;-0.25;100.00
46876;BME280;32866;50.160;14.768;2023-01-29T13:45:47;100201.00;;;-0.24;100.00
46876;BME280;32866;50.160;14.768;2023-01-29T13:48:26;100221.75;;;-0.24;100.00
46876;BME280;32866;50.160;14.768;2023-01-29T13:50:55;100227.50;;;-0.26;100.00
46876;BME280;32866;50.160;14.768;2023-01-29T13:53:28;100194.69;;;-0.44;100.00
46876;BME280;32866;50.160;14.768;2023-01-29T13:56:29;100229.22;;;-0.33;100.00
46876;BME280;32866;50.160;14.768;2023-01-29T13:58:56;100219.63;;;-0.47;100.00
46876;BME280;32866;50.160;14.768;2023-01-29T14:06:48;100219.38;;;-0.42;100.00
46876;BME280;32866;50.160;14.768;2023-01-29T14:11:56;100189.22;;;-0.47;100.00
46876;BME280;32866;50.160;14.768;2023-01-29T14:17:24;100205.78;;;-0.17;100.00
46876;BME280;32866;50.160;14.768;2023-01-29T14:20:14;100196.44;;;-0.35;100.00
46876;BME280;32866;50.160;14.768;2023-01-29T14:22:41;100157.34;;;-0.73;100.00
46876;BME280;32866;50.160;14.768;2023-01-29T14:25:16;100196.78;;;-0.37;100.00
46876;BME280;32866;50.160;14.768;2023-01-29T14:27:48;100158.03;;;-0.77;100.00